This is the latest recevied weather packets stored in our database for station/object SQ4LOL-9. If no packets are shown the sender has not sent any weather packets the latest 1 day(s).
| Time | Temp. | Humidity | Pressure | Rain* | Wind** | Luminosity | Snow |
|---|---|---|---|---|---|---|---|
| 1778164468 | 30° C | 30% | 991.8 hPa | - | - | - | - |
| 1778164226 | 30.56° C | 29% | 991.8 hPa | - | - | - | - |
| 1778163871 | 30.56° C | 29% | 991.9 hPa | - | - | - | - |
| 1778163858 | 30.56° C | 29% | 991.7 hPa | - | - | - | - |
| 1778163845 | 30.56° C | 29% | 991.8 hPa | - | - | - | - |
| 1778163819 | 30.56° C | 29% | 991.8 hPa | - | - | - | - |
| 1778163780 | 30° C | 30% | 991.6 hPa | - | - | - | - |
| 1778163376 | 30° C | 29% | 991.7 hPa | - | - | - | - |
| 1778163350 | 30° C | 29% | 991.6 hPa | - | - | - | - |
| 1778159591 | 32.22° C | 43% | 994.1 hPa | - | - | - | - |
| 1778159526 | 32.22° C | 43% | 994.2 hPa | - | - | - | - |
| 1778159460 | 31.67° C | 45% | 994.4 hPa | - | - | - | - |
| 1778159447 | 31.11° C | 45% | 994.3 hPa | - | - | - | - |
| 1778159388 | 30.56° C | 46% | 994.4 hPa | - | - | - | - |
| 1778159343 | 30° C | 47% | 994.1 hPa | - | - | - | - |
| 1778159290 | 29.44° C | 48% | 994 hPa | - | - | - | - |
| 1778145162 | 27.78° C | 36% | 991.2 hPa | - | - | - | - |
| 1778145129 | 27.78° C | 37% | 990.2 hPa | - | - | - | - |
| 1778145070 | 27.78° C | 37% | 989.8 hPa | - | - | - | - |
| 1778145050 | 27.78° C | 37% | 989.9 hPa | - | - | - | - |
| 1778145024 | 27.22° C | 37% | 989.3 hPa | - | - | - | - |
| 1778145011 | 27.22° C | 37% | 988.5 hPa | - | - | - | - |
| 1778144970 | 27.22° C | 37% | 988.4 hPa | - | - | - | - |
| 1778144957 | 27.22° C | 37% | 989 hPa | - | - | - | - |
| 1778144944 | 27.22° C | 37% | 989.2 hPa | - | - | - | - |
* Rain since midnight (hover to see other rain measurements)
** Current wind speed in m/s (hover to see current wind gust speed)